createdAt,value
2022-11-05T00:01:36.153Z,16.83
2022-11-05T00:04:24.457Z,19.13
2022-11-05T00:07:12.379Z,20.28
2022-11-05T00:09:39.188Z,21.03
2022-11-05T00:12:24.815Z,21.03
2022-11-05T00:15:10.162Z,21.20
2022-11-05T00:17:36.981Z,21.53
2022-11-05T00:20:03.744Z,21.57
2022-11-05T00:22:48.967Z,21.82
2022-11-05T00:25:18.538Z,21.67
2022-11-05T00:27:45.346Z,21.88
2022-11-05T00:30:12.174Z,22.10
2022-11-05T00:32:38.925Z,21.18
2022-11-05T00:35:05.691Z,18.09
2022-11-05T00:37:32.596Z,16.66
2022-11-05T00:39:59.436Z,18.51
2022-11-05T00:42:44.964Z,19.97
2022-11-05T00:45:11.786Z,20.77
2022-11-05T00:48:10.591Z,21.14
2022-11-05T00:50:37.411Z,21.05
2022-11-05T00:53:04.188Z,21.20
2022-11-05T00:55:31.037Z,21.39
2022-11-05T00:57:57.823Z,21.57
2022-11-05T01:00:24.639Z,21.66
2022-11-05T01:02:51.538Z,21.61
2022-11-05T01:05:18.381Z,21.89
2022-11-05T01:07:45.129Z,21.87
2022-11-05T01:10:12.055Z,21.92
2022-11-05T01:12:38.820Z,22.18
2022-11-05T01:15:06.180Z,21.68
2022-11-05T01:17:32.945Z,18.51
2022-11-05T01:19:59.682Z,16.77
2022-11-05T01:22:26.422Z,18.46
2022-11-05T01:24:53.170Z,19.99
2022-11-05T01:27:19.910Z,20.80
2022-11-05T01:29:46.645Z,21.15
2022-11-05T01:32:13.399Z,20.95
2022-11-05T01:34:40.158Z,21.23
2022-11-05T01:37:06.899Z,21.45
2022-11-05T01:39:33.717Z,21.59
2022-11-05T01:42:00.527Z,21.62
2022-11-05T01:44:27.267Z,21.67
2022-11-05T01:46:54.015Z,21.76
2022-11-05T01:49:20.754Z,21.88
2022-11-05T01:51:48.213Z,22.02
2022-11-05T01:54:14.978Z,22.07
2022-11-05T01:56:41.743Z,19.05
2022-11-05T01:59:08.492Z,17.50
2022-11-05T02:01:35.404Z,18.20
2022-11-05T02:04:02.225Z,19.71
2022-11-05T02:06:28.976Z,20.52
2022-11-05T02:08:55.727Z,20.87
2022-11-05T02:11:22.471Z,21.16
2022-11-05T02:13:49.215Z,21.30
2022-11-05T02:16:15.967Z,21.44
2022-11-05T02:18:42.736Z,21.64
2022-11-05T02:21:09.491Z,21.83
2022-11-05T02:23:36.246Z,21.79
2022-11-05T02:26:03.021Z,21.77
2022-11-05T02:28:29.781Z,21.87
2022-11-05T02:30:56.545Z,21.92
2022-11-05T02:33:23.311Z,22.01
2022-11-05T02:35:50.103Z,21.65
2022-11-05T02:38:16.890Z,18.62
2022-11-05T02:40:43.645Z,17.11
2022-11-05T02:43:15.068Z,18.68
2022-11-05T02:45:41.836Z,19.83
2022-11-05T02:48:08.632Z,20.57
2022-11-05T02:50:35.394Z,21.01
2022-11-05T02:53:02.147Z,21.22
2022-11-05T02:55:28.889Z,21.33
2022-11-05T02:57:55.663Z,21.42
2022-11-05T03:00:22.428Z,21.58
2022-11-05T03:02:49.311Z,21.59
2022-11-05T03:05:16.121Z,21.65
2022-11-05T03:07:42.887Z,21.67
2022-11-05T03:10:09.651Z,21.87
2022-11-05T03:12:36.390Z,21.93
2022-11-05T03:15:03.143Z,22.01
2022-11-05T03:17:29.894Z,21.88
2022-11-05T03:19:56.645Z,18.72
2022-11-05T03:22:23.427Z,16.96
2022-11-05T03:24:50.167Z,18.28
2022-11-05T03:27:16.928Z,19.83
2022-11-05T03:29:43.685Z,20.53
2022-11-05T03:32:10.432Z,20.93
2022-11-05T03:34:37.175Z,21.08
2022-11-05T03:37:03.932Z,21.26
2022-11-05T03:39:30.759Z,21.46
2022-11-05T03:41:57.687Z,21.56
2022-11-05T03:44:24.495Z,21.64
2022-11-05T03:46:51.245Z,21.59
2022-11-05T03:49:17.996Z,21.83
2022-11-05T03:51:44.781Z,21.83
2022-11-05T03:54:11.610Z,21.97
2022-11-05T03:56:38.411Z,20.80
2022-11-05T03:59:05.175Z,17.88
2022-11-05T04:01:32.056Z,16.77
2022-11-05T04:03:58.905Z,18.84
2022-11-05T04:06:44.385Z,20.14
2022-11-05T04:09:29.758Z,20.79
2022-11-05T04:12:15.043Z,21.01
2022-11-05T04:14:41.793Z,21.23
2022-11-05T04:17:11.365Z,21.18
2022-11-05T04:19:56.984Z,21.29
2022-11-05T04:22:42.491Z,21.47
2022-11-05T04:25:09.331Z,21.75
2022-11-05T04:27:36.151Z,21.91
2022-11-05T04:30:21.787Z,21.81
2022-11-05T04:32:48.765Z,22.00
2022-11-05T04:35:15.568Z,21.89
2022-11-05T04:37:42.351Z,22.13
2022-11-05T04:40:09.095Z,20.91
2022-11-05T04:42:35.842Z,18.18
2022-11-05T04:45:02.609Z,16.95
2022-11-05T04:47:29.363Z,19.01
2022-11-05T04:49:56.123Z,20.37
2022-11-05T04:52:22.930Z,20.97
2022-11-05T04:54:49.662Z,21.00
2022-11-05T04:57:16.411Z,21.21
2022-11-05T04:59:43.185Z,21.32
2022-11-05T05:02:10.023Z,21.45
2022-11-05T05:04:36.853Z,21.62
2022-11-05T05:07:03.617Z,21.69
2022-11-05T05:09:30.371Z,21.70
2022-11-05T05:11:57.118Z,21.82
2022-11-05T05:14:23.882Z,22.02
2022-11-05T05:16:50.749Z,21.99
2022-11-05T05:19:17.499Z,22.11
2022-11-05T05:21:44.281Z,19.10
2022-11-05T05:24:11.069Z,17.51
2022-11-05T05:26:37.815Z,18.02
2022-11-05T05:29:04.642Z,19.63
2022-11-05T05:31:31.421Z,20.44
2022-11-05T05:33:58.215Z,20.94
2022-11-05T05:36:25.008Z,21.14
2022-11-05T05:38:51.771Z,21.33
2022-11-05T05:41:18.524Z,21.36
2022-11-05T05:43:45.315Z,21.52
2022-11-05T05:46:12.061Z,21.57
2022-11-05T05:48:38.851Z,21.58
2022-11-05T05:51:05.620Z,21.68
2022-11-05T05:53:32.377Z,21.94
2022-11-05T05:55:59.136Z,21.94
2022-11-05T05:58:28.866Z,22.05
2022-11-05T06:00:55.608Z,20.18
2022-11-05T06:03:22.459Z,18.09
2022-11-05T06:05:49.299Z,17.59
2022-11-05T06:08:16.084Z,19.24
2022-11-05T06:10:43.000Z,20.26
2022-11-05T06:13:10.104Z,20.87
2022-11-05T06:15:37.064Z,21.14
2022-11-05T06:18:03.807Z,21.15
2022-11-05T06:20:30.552Z,21.38
2022-11-05T06:22:57.330Z,21.50
2022-11-05T06:25:24.128Z,21.57
2022-11-05T06:27:50.885Z,21.69
2022-11-05T06:30:17.699Z,21.92
2022-11-05T06:32:44.490Z,21.89
2022-11-05T06:35:11.314Z,22.19
2022-11-05T06:37:38.071Z,22.03
2022-11-05T06:40:04.849Z,22.04
2022-11-05T06:42:31.618Z,21.13
2022-11-05T06:44:58.368Z,18.28
2022-11-05T06:47:25.106Z,17.12
2022-11-05T06:49:51.899Z,18.95
2022-11-05T06:52:18.650Z,20.15
2022-11-05T06:54:45.437Z,20.87
2022-11-05T06:57:12.227Z,21.25
2022-11-05T06:59:39.000Z,21.38
2022-11-05T07:02:05.804Z,21.48
2022-11-05T07:04:32.615Z,21.57
2022-11-05T07:06:59.822Z,21.56
2022-11-05T07:09:26.568Z,21.61
2022-11-05T07:11:53.328Z,21.81
2022-11-05T07:14:20.147Z,21.80
2022-11-05T07:16:46.891Z,21.94
2022-11-05T07:19:13.648Z,21.99
2022-11-05T07:21:40.832Z,21.29
2022-11-05T07:24:07.565Z,18.39
2022-11-05T07:26:34.792Z,17.24
2022-11-05T07:29:01.627Z,18.79
2022-11-05T07:31:28.451Z,19.90
2022-11-05T07:33:55.206Z,20.63
2022-11-05T07:36:22.012Z,21.00
2022-11-05T07:38:48.763Z,21.23
2022-11-05T07:41:15.531Z,21.46
2022-11-05T07:43:42.281Z,21.38
2022-11-05T07:46:13.656Z,21.71
2022-11-05T07:48:40.737Z,21.47
2022-11-05T07:51:07.493Z,21.76
2022-11-05T07:53:34.231Z,21.82
2022-11-05T07:56:00.990Z,21.95
2022-11-05T07:58:27.738Z,22.08
2022-11-05T08:00:54.670Z,21.05
2022-11-05T08:03:21.866Z,18.15
2022-11-05T08:05:49.042Z,16.70
2022-11-05T08:08:15.789Z,18.66
2022-11-05T08:10:42.627Z,20.05
2022-11-05T08:13:09.517Z,20.52
2022-11-05T08:15:37.847Z,20.90
2022-11-05T08:18:04.607Z,21.19
2022-11-05T08:20:31.415Z,21.29
2022-11-05T08:22:58.175Z,21.38
2022-11-05T08:25:24.944Z,21.52
2022-11-05T08:27:51.696Z,21.57
2022-11-05T08:30:18.437Z,21.82
2022-11-05T08:32:45.199Z,21.75
2022-11-05T08:35:11.955Z,21.91
2022-11-05T08:37:39.294Z,21.98
2022-11-05T08:40:06.046Z,22.14
2022-11-05T08:42:32.793Z,20.25
2022-11-05T08:44:59.552Z,18.03
2022-11-05T08:47:26.334Z,17.15
2022-11-05T08:49:54.472Z,19.12
2022-11-05T08:52:21.227Z,20.23
2022-11-05T08:54:48.016Z,20.69
2022-11-05T08:57:14.921Z,21.01
2022-11-05T08:59:41.682Z,21.08
2022-11-05T09:02:08.585Z,21.51
2022-11-05T09:04:35.467Z,21.59
2022-11-05T09:07:02.212Z,21.67
2022-11-05T09:09:29.004Z,21.71
2022-11-05T09:12:11.892Z,21.89
2022-11-05T09:14:39.632Z,21.95
2022-11-05T09:17:06.394Z,22.14
2022-11-05T09:19:36.631Z,22.01
2022-11-05T09:22:06.294Z,18.41
2022-11-05T09:24:33.027Z,17.21
2022-11-05T09:26:59.775Z,18.65
2022-11-05T09:29:26.556Z,19.86
2022-11-05T09:31:53.405Z,20.61
2022-11-05T09:34:20.215Z,20.92
2022-11-05T09:36:47.210Z,21.23
2022-11-05T09:39:13.954Z,21.42
2022-11-05T09:41:40.694Z,21.46
2022-11-05T09:44:07.475Z,21.56
2022-11-05T09:46:34.262Z,21.68
2022-11-05T09:49:02.146Z,21.72
2022-11-05T09:51:29.051Z,21.94
2022-11-05T09:53:56.315Z,21.92
2022-11-05T09:56:23.254Z,21.86
2022-11-05T09:58:50.106Z,22.05
2022-11-05T10:01:17.048Z,20.33
2022-11-05T10:03:43.899Z,18.08
2022-11-05T10:06:10.684Z,17.24
2022-11-05T10:08:37.471Z,19.31
2022-11-05T10:11:04.248Z,20.31
2022-11-05T10:13:31.072Z,21.00
2022-11-05T10:15:57.837Z,21.05
2022-11-05T10:18:24.594Z,21.32
2022-11-05T10:20:51.351Z,21.47
2022-11-05T10:23:18.090Z,21.71
2022-11-05T10:25:44.907Z,21.65
2022-11-05T10:28:11.668Z,21.73
2022-11-05T10:30:38.426Z,21.77
2022-11-05T10:33:05.158Z,21.89
2022-11-05T10:35:31.951Z,22.17
2022-11-05T10:37:58.713Z,21.64
2022-11-05T10:40:25.477Z,18.65
2022-11-05T10:42:52.241Z,17.31
2022-11-05T10:45:19.035Z,18.55
2022-11-05T10:47:45.810Z,20.19
2022-11-05T10:50:12.619Z,20.75
2022-11-05T10:52:39.423Z,21.18
2022-11-05T10:55:06.183Z,21.43
2022-11-05T10:57:33.018Z,21.39
2022-11-05T10:59:59.807Z,21.63
2022-11-05T11:02:26.910Z,21.59
2022-11-05T11:04:53.789Z,21.71
2022-11-05T11:07:20.531Z,21.74
2022-11-05T11:09:47.295Z,21.78
2022-11-05T11:12:14.047Z,22.12
2022-11-05T11:14:40.834Z,22.01
2022-11-05T11:17:07.572Z,22.00
2022-11-05T11:19:34.359Z,21.84
2022-11-05T11:22:01.095Z,18.82
2022-11-05T11:24:33.293Z,17.38
2022-11-05T11:27:00.272Z,18.69
2022-11-05T11:29:27.954Z,20.00
2022-11-05T11:31:54.727Z,20.77
2022-11-05T11:34:21.496Z,21.08
2022-11-05T11:36:48.270Z,21.36
2022-11-05T11:39:15.847Z,21.46
2022-11-05T11:41:42.746Z,21.61
2022-11-05T11:44:09.547Z,21.61
2022-11-05T11:46:36.367Z,21.60
2022-11-05T11:49:03.145Z,21.88
2022-11-05T11:51:30.241Z,22.02
2022-11-05T11:53:57.045Z,21.94
2022-11-05T11:56:23.915Z,21.17
2022-11-05T11:58:50.713Z,18.02
2022-11-05T12:01:17.515Z,16.85
2022-11-05T12:03:44.356Z,18.63
2022-11-05T12:06:11.104Z,19.96
2022-11-05T12:08:41.620Z,20.70
2022-11-05T12:11:11.340Z,21.17
2022-11-05T12:13:38.216Z,21.18
2022-11-05T12:16:04.983Z,21.32
2022-11-05T12:18:31.758Z,21.33
2022-11-05T12:20:58.663Z,21.67
2022-11-05T12:23:25.459Z,21.64
2022-11-05T12:25:52.215Z,21.83
2022-11-05T12:28:18.958Z,21.80
2022-11-05T12:30:45.722Z,22.00
2022-11-05T12:33:12.661Z,22.12
2022-11-05T12:35:45.692Z,21.49
2022-11-05T12:38:14.282Z,18.26
2022-11-05T12:40:41.027Z,16.99
2022-11-05T12:43:11.596Z,18.82
2022-11-05T12:45:38.754Z,20.06
2022-11-05T12:48:05.496Z,20.82
2022-11-05T12:50:32.242Z,21.09
2022-11-05T12:52:59.008Z,21.16
2022-11-05T12:55:25.754Z,21.38
2022-11-05T12:57:52.514Z,21.56
2022-11-05T13:00:19.258Z,21.76
2022-11-05T13:02:46.038Z,21.70
2022-11-05T13:05:13.531Z,21.73
2022-11-05T13:07:40.296Z,21.84
2022-11-05T13:10:07.064Z,22.13
2022-11-05T13:12:33.967Z,22.14
2022-11-05T13:15:00.860Z,20.90
2022-11-05T13:17:27.646Z,18.18
2022-11-05T13:19:54.399Z,17.20
2022-11-05T13:22:21.228Z,18.96
2022-11-05T13:24:48.032Z,20.15
2022-11-05T13:27:14.774Z,21.12
2022-11-05T13:29:41.551Z,21.11
2022-11-05T13:32:08.294Z,21.29
2022-11-05T13:34:37.771Z,21.33
2022-11-05T13:37:23.220Z,21.49
2022-11-05T13:39:50.041Z,21.73
2022-11-05T13:42:16.793Z,21.65
2022-11-05T13:44:43.567Z,21.83
2022-11-05T13:47:10.380Z,21.97
2022-11-05T13:49:37.170Z,22.05
2022-11-05T13:52:03.956Z,22.00
2022-11-05T13:54:30.716Z,19.60
2022-11-05T13:56:57.476Z,17.80
2022-11-05T13:59:24.231Z,17.99
2022-11-05T14:01:51.060Z,19.50
2022-11-05T14:04:17.908Z,20.44
2022-11-05T14:06:44.679Z,21.06
2022-11-05T14:09:11.736Z,21.38
2022-11-05T14:11:38.556Z,21.56
2022-11-05T14:14:05.315Z,21.40
2022-11-05T14:16:32.054Z,21.56
2022-11-05T14:18:58.803Z,21.76
2022-11-05T14:21:25.583Z,21.82
2022-11-05T14:23:52.403Z,21.82
2022-11-05T14:26:19.185Z,21.94
2022-11-05T14:28:45.983Z,22.06
2022-11-05T14:31:12.789Z,20.67
2022-11-05T14:33:39.546Z,18.38
2022-11-05T14:36:06.307Z,17.40
2022-11-05T14:38:33.055Z,19.20
2022-11-05T14:40:59.867Z,20.22
2022-11-05T14:43:26.658Z,20.87
2022-11-05T14:45:53.414Z,21.14
2022-11-05T14:48:20.192Z,21.53
2022-11-05T14:50:46.959Z,21.61
2022-11-05T14:53:14.045Z,21.69
2022-11-05T14:55:41.118Z,21.64
2022-11-05T14:58:07.918Z,21.86
2022-11-05T15:00:36.492Z,21.80
2022-11-05T15:03:03.266Z,21.94
2022-11-05T15:05:30.036Z,22.09
2022-11-05T15:07:56.888Z,22.11
2022-11-05T15:10:23.661Z,20.17
2022-11-05T15:12:50.423Z,18.13
2022-11-05T15:15:21.554Z,17.65
2022-11-05T15:17:51.234Z,19.69
2022-11-05T15:20:18.592Z,20.57
2022-11-05T15:22:45.375Z,21.07
2022-11-05T15:25:12.136Z,21.35
2022-11-05T15:27:38.900Z,21.50
2022-11-05T15:30:05.663Z,21.64
2022-11-05T15:32:37.420Z,21.60
2022-11-05T15:35:05.249Z,21.77
2022-11-05T15:37:31.990Z,21.71
2022-11-05T15:39:58.783Z,21.86
2022-11-05T15:42:25.704Z,22.07
2022-11-05T15:44:52.455Z,20.06
2022-11-05T15:47:19.413Z,18.05
2022-11-05T15:49:46.168Z,17.55
2022-11-05T15:52:12.930Z,19.55
2022-11-05T15:54:39.718Z,20.59
2022-11-05T15:57:06.492Z,21.10
2022-11-05T15:59:34.960Z,21.27
2022-11-05T16:02:03.125Z,21.45
2022-11-05T16:04:30.005Z,21.41
2022-11-05T16:06:56.820Z,21.74
2022-11-05T16:09:23.602Z,21.64
2022-11-05T16:11:50.467Z,21.86
2022-11-05T16:14:17.331Z,21.78
2022-11-05T16:16:44.096Z,21.87
2022-11-05T16:19:10.849Z,21.85
2022-11-05T16:21:37.594Z,21.98
2022-11-05T16:24:05.084Z,19.74
2022-11-05T16:27:03.102Z,17.41
2022-11-05T16:29:18.647Z,17.75
2022-11-05T16:31:45.559Z,19.87
2022-11-05T16:34:12.413Z,20.68
2022-11-05T16:36:39.183Z,21.29
2022-11-05T16:39:05.935Z,21.18
2022-11-05T16:41:32.751Z,21.50
2022-11-05T16:43:59.546Z,21.43
2022-11-05T16:46:26.380Z,21.69
2022-11-05T16:48:53.427Z,21.76
2022-11-05T16:51:26.233Z,21.90
2022-11-05T16:53:54.188Z,21.93
2022-11-05T16:56:20.948Z,21.99
2022-11-05T16:58:47.783Z,21.96
2022-11-05T17:01:14.649Z,20.83
2022-11-05T17:03:41.491Z,17.75
2022-11-05T17:06:08.245Z,17.06
2022-11-05T17:08:35.002Z,19.47
2022-11-05T17:11:01.795Z,20.38
2022-11-05T17:13:28.612Z,20.94
2022-11-05T17:15:55.360Z,21.25
2022-11-05T17:18:22.401Z,21.45
2022-11-05T17:20:49.453Z,21.48
2022-11-05T17:23:16.651Z,21.49
2022-11-05T17:25:43.743Z,21.70
2022-11-05T17:28:10.901Z,21.80
2022-11-05T17:30:40.361Z,21.85
2022-11-05T17:33:08.390Z,21.91
2022-11-05T17:35:35.198Z,22.15
2022-11-05T17:38:02.126Z,18.87
2022-11-05T17:40:28.922Z,17.26
2022-11-05T17:42:55.692Z,18.17
2022-11-05T17:45:22.485Z,19.94
2022-11-05T17:47:49.260Z,20.67
2022-11-05T17:50:16.132Z,20.82
2022-11-05T17:52:42.972Z,21.35
2022-11-05T17:55:16.396Z,21.51
2022-11-05T17:57:43.163Z,21.38
2022-11-05T18:00:10.048Z,21.58
2022-11-05T18:02:36.917Z,21.69
2022-11-05T18:05:03.776Z,21.78
2022-11-05T18:07:30.518Z,21.94
2022-11-05T18:09:57.286Z,22.04
2022-11-05T18:12:24.078Z,22.07
2022-11-05T18:14:50.854Z,21.36
2022-11-05T18:17:17.599Z,17.89
2022-11-05T18:19:44.349Z,16.90
2022-11-05T18:22:11.133Z,19.11
2022-11-05T18:24:38.425Z,20.26
2022-11-05T18:27:05.195Z,20.87
2022-11-05T18:29:31.941Z,21.15
2022-11-05T18:31:58.693Z,21.27
2022-11-05T18:34:25.466Z,21.30
2022-11-05T18:36:56.226Z,21.42
2022-11-05T18:39:23.442Z,21.64
2022-11-05T18:41:50.220Z,21.77
2022-11-05T18:44:17.028Z,21.77
2022-11-05T18:46:57.653Z,21.95
2022-11-05T18:49:25.362Z,22.00
2022-11-05T18:51:52.103Z,22.09
2022-11-05T18:54:18.836Z,19.12
2022-11-05T18:56:45.916Z,17.44
2022-11-05T18:59:35.245Z,18.42
2022-11-05T19:01:59.558Z,20.21
2022-11-05T19:04:26.931Z,20.93
2022-11-05T19:06:53.783Z,21.17
2022-11-05T19:09:20.821Z,21.24
2022-11-05T19:11:47.642Z,21.36
2022-11-05T19:14:14.395Z,21.51
2022-11-05T19:16:41.185Z,21.67
2022-11-05T19:19:08.028Z,21.75
2022-11-05T19:21:34.796Z,21.91
2022-11-05T19:24:01.594Z,21.84
2022-11-05T19:26:29.055Z,22.12
2022-11-05T19:28:55.976Z,22.16
2022-11-05T19:31:22.776Z,19.44
2022-11-05T19:33:49.651Z,17.70
2022-11-05T19:36:16.463Z,18.20
2022-11-05T19:38:43.289Z,20.14
2022-11-05T19:41:10.095Z,20.69
2022-11-05T19:43:36.863Z,21.07
2022-11-05T19:46:03.644Z,21.34
2022-11-05T19:48:31.341Z,21.42
2022-11-05T19:50:58.086Z,21.50
2022-11-05T19:53:25.050Z,21.55
2022-11-05T19:55:52.067Z,21.79
2022-11-05T19:58:18.836Z,21.71
2022-11-05T20:00:45.600Z,21.89
2022-11-05T20:03:12.646Z,21.99
2022-11-05T20:05:39.418Z,22.04
2022-11-05T20:08:06.184Z,20.78
2022-11-05T20:10:32.933Z,17.76
2022-11-05T20:12:59.779Z,17.39
2022-11-05T20:15:26.552Z,19.66
2022-11-05T20:17:53.383Z,20.46
2022-11-05T20:20:20.177Z,20.92
2022-11-05T20:22:47.056Z,21.17
2022-11-05T20:25:13.962Z,21.38
2022-11-05T20:27:41.939Z,21.47
2022-11-05T20:30:08.753Z,21.79
2022-11-05T20:32:35.513Z,21.64
2022-11-05T20:35:02.273Z,21.77
2022-11-05T20:37:29.027Z,21.87
2022-11-05T20:39:55.879Z,21.95
2022-11-05T20:42:22.650Z,22.09
2022-11-05T20:44:49.428Z,19.64
2022-11-05T20:47:16.177Z,17.54
2022-11-05T20:49:42.924Z,17.78
2022-11-05T20:52:09.803Z,19.82
2022-11-05T20:54:36.560Z,20.47
2022-11-05T20:57:03.435Z,20.97
2022-11-05T20:59:30.447Z,21.22
2022-11-05T21:01:57.286Z,21.27
2022-11-05T21:04:24.172Z,21.38
2022-11-05T21:06:50.959Z,21.68
2022-11-05T21:09:17.714Z,21.62
2022-11-05T21:12:03.113Z,21.86
2022-11-05T21:14:29.912Z,21.78
2022-11-05T21:16:56.703Z,21.97
2022-11-05T21:19:23.951Z,21.85
2022-11-05T21:21:50.692Z,18.33
2022-11-05T21:24:17.447Z,17.80
2022-11-05T21:26:44.284Z,19.75
2022-11-05T21:29:11.035Z,20.70
2022-11-05T21:31:37.854Z,21.26
2022-11-05T21:34:04.639Z,21.22
2022-11-05T21:36:31.441Z,21.43
2022-11-05T21:38:58.182Z,21.45
2022-11-05T21:41:24.983Z,21.60
2022-11-05T21:43:51.722Z,21.71
2022-11-05T21:46:18.476Z,21.89
2022-11-05T21:48:45.268Z,21.93
2022-11-05T21:51:30.797Z,22.14
2022-11-05T21:54:16.194Z,19.87
2022-11-05T21:57:03.474Z,17.78
2022-11-05T21:59:51.625Z,19.48
2022-11-05T22:02:18.569Z,20.77
2022-11-05T22:04:45.491Z,21.15
2022-11-05T22:07:12.250Z,21.32
2022-11-05T22:09:38.998Z,21.51
2022-11-05T22:12:05.838Z,21.50
2022-11-05T22:14:32.647Z,21.75
2022-11-05T22:16:59.404Z,21.89
2022-11-05T22:19:26.160Z,21.78
2022-11-05T22:21:53.053Z,21.98
2022-11-05T22:24:19.798Z,22.10
2022-11-05T22:26:46.531Z,20.02
2022-11-05T22:29:13.316Z,17.57
2022-11-05T22:31:40.106Z,17.64
2022-11-05T22:34:06.879Z,19.90
2022-11-05T22:36:33.638Z,20.44
2022-11-05T22:39:00.384Z,21.00
2022-11-05T22:41:27.134Z,21.14
2022-11-05T22:43:54.212Z,21.34
2022-11-05T22:46:20.961Z,21.45
2022-11-05T22:48:47.707Z,21.59
2022-11-05T22:51:14.465Z,21.71
2022-11-05T22:53:41.320Z,21.72
2022-11-05T22:56:08.063Z,21.85
2022-11-05T22:58:34.882Z,21.87
2022-11-05T23:01:01.630Z,22.09
2022-11-05T23:03:28.398Z,21.45
2022-11-05T23:05:55.166Z,18.05
2022-11-05T23:08:40.847Z,17.48
2022-11-05T23:11:27.595Z,19.77
2022-11-05T23:13:55.636Z,20.60
2022-11-05T23:16:40.861Z,21.12
2022-11-05T23:19:26.254Z,21.33
2022-11-05T23:22:11.595Z,21.34
2022-11-05T23:24:38.388Z,21.48
2022-11-05T23:27:05.160Z,21.86
2022-11-05T23:29:31.948Z,21.75
2022-11-05T23:32:17.220Z,21.88
2022-11-05T23:34:44.183Z,22.04
2022-11-05T23:37:29.498Z,21.48
2022-11-05T23:39:56.397Z,17.90
2022-11-05T23:42:41.528Z,17.31
2022-11-05T23:45:26.779Z,19.80
2022-11-05T23:48:12.499Z,20.72
2022-11-05T23:50:40.270Z,20.94
2022-11-05T23:53:07.208Z,21.11
2022-11-05T23:55:34.009Z,21.33
2022-11-05T23:58:00.911Z,21.52
